Time;durP1;ratioP1;P1;durP2;ratioP2;P2;SDS_P1;SDS_P2;PMS_P1;PMS_P2;Temp;Humidity;BMP_temperature;BMP_pressure;BME280_temperature;BME280_humidity;BME280_pressure;Samples;Min_cycle;Max_cycle;Signal;HPM_P1;HPM_P2
2022/02/16 00:00:12;;;;;;;23.05;12.60;;;;;;;-0.24;75.15;101766.42;1714129;83;20953;-73
2022/02/16 00:02:39;;;;;;;21.70;11.73;;;;;;;-0.22;75.20;101761.28;1714383;83;20875;-73
2022/02/16 00:05:09;;;;;;;19.30;11.75;;;;;;;-0.24;75.39;101757.41;1714340;83;21027;-72
2022/02/16 00:07:41;;;;;;;21.27;13.00;;;;;;;-0.23;75.48;101754.39;1714086;83;20929;-73
2022/02/16 00:10:10;;;;;;;29.52;13.83;;;;;;;-0.24;75.63;101748.81;1714084;83;21508;-72
2022/02/16 00:12:38;;;;;;;22.07;12.82;;;;;;;-0.24;75.67;101741.94;1714394;83;21526;-71
2022/02/16 00:15:07;;;;;;;22.70;12.43;;;;;;;-0.25;75.76;101737.63;1714020;83;21035;-72
2022/02/16 00:17:36;;;;;;;19.75;12.13;;;;;;;-0.26;75.82;101737.64;1714223;83;21052;-72
2022/02/16 00:20:05;;;;;;;20.57;13.13;;;;;;;-0.23;75.80;101737.64;1714099;83;20952;-74
2022/02/16 00:22:34;;;;;;;19.27;12.13;;;;;;;-0.24;75.89;101739.80;1714182;83;20917;-73
2022/02/16 00:25:01;;;;;;;20.27;13.15;;;;;;;-0.25;75.92;101734.19;1714132;83;20940;-74
2022/02/16 00:27:28;;;;;;;25.25;13.15;;;;;;;-0.30;76.02;101738.48;1714149;83;20900;-74
2022/02/16 00:29:56;;;;;;;21.23;13.08;;;;;;;-0.31;76.08;101736.34;1714109;83;21512;-73
2022/02/16 00:32:23;;;;;;;19.70;13.18;;;;;;;-0.35;76.14;101728.59;1714016;83;20913;-73
2022/02/16 00:34:51;;;;;;;21.17;12.88;;;;;;;-0.38;76.23;101729.86;1714075;83;20920;-72
2022/02/16 00:37:18;;;;;;;19.70;12.85;;;;;;;-0.40;76.40;101735.43;1716129;83;20956;-75
2022/02/16 00:39:44;;;;;;;23.25;12.23;;;;;;;-0.42;76.46;101735.45;1721951;83;21354;-74
2022/02/16 00:42:12;;;;;;;17.98;12.15;;;;;;;-0.45;76.59;101729.83;1721776;83;21568;-73
2022/02/16 00:44:40;;;;;;;23.90;12.95;;;;;;;-0.48;76.69;101731.13;1722234;83;20848;-73
2022/02/16 00:47:07;;;;;;;19.42;12.75;;;;;;;-0.51;76.83;101731.52;1722085;82;20967;-75
2022/02/16 00:49:35;;;;;;;21.55;12.93;;;;;;;-0.53;76.98;101731.98;1722066;82;21588;-73
2022/02/16 00:52:02;;;;;;;20.20;13.80;;;;;;;-0.56;77.16;101723.78;1695336;83;20927;-74
2022/02/16 00:54:30;;;;;;;26.02;14.15;;;;;;;-0.60;77.28;101725.94;1722091;83;21357;-74
2022/02/16 00:57:01;;;;;;;25.23;14.47;;;;;;;-0.62;77.40;101719.92;1721920;83;20974;-74
2022/02/16 00:59:28;;;;;;;21.52;12.98;;;;;;;-0.64;77.50;101721.19;1722260;82;20904;-74
2022/02/16 01:01:56;;;;;;;21.42;12.25;;;;;;;-0.62;77.54;101721.20;1721975;83;20891;-73
2022/02/16 01:04:24;;;;;;;20.77;12.03;;;;;;;-0.62;77.50;101714.77;1722180;83;20931;-77
2022/02/16 01:06:52;;;;;;;18.00;12.33;;;;;;;-0.59;77.56;101712.63;1721996;83;21161;-74
2022/02/16 01:09:20;;;;;;;19.37;12.95;;;;;;;-0.59;77.69;101719.92;1722275;83;20935;-73
2022/02/16 01:11:48;;;;;;;19.45;13.18;;;;;;;-0.60;77.72;101705.73;1721932;83;20880;-73
2022/02/16 01:14:15;;;;;;;26.57;13.15;;;;;;;-0.60;77.82;101710.48;1695772;83;21471;-74
2022/02/16 01:16:45;;;;;;;21.42;13.32;;;;;;;-0.62;77.88;101703.17;1719856;83;20951;-73
2022/02/16 01:19:14;;;;;;;23.02;14.18;;;;;;;-0.61;77.90;101700.16;1719585;83;21357;-75
2022/02/16 01:21:41;;;;;;;19.67;13.30;;;;;;;-0.64;77.98;101697.16;1721973;83;20879;-74
2022/02/16 01:24:09;;;;;;;29.27;13.38;;;;;;;-0.66;78.02;101696.28;1722066;83;20928;-73
2022/02/16 01:26:37;;;;;;;23.52;13.53;;;;;;;-0.65;78.08;101704.43;1721896;83;20967;-75
2022/02/16 01:29:06;;;;;;;19.82;13.60;;;;;;;-0.64;78.07;101706.17;1720762;83;21041;-74
2022/02/16 01:31:35;;;;;;;24.85;15.90;;;;;;;-0.64;78.07;101706.17;1721669;82;21452;-74
2022/02/16 01:34:02;;;;;;;27.87;14.63;;;;;;;-0.63;78.05;101700.14;1722078;83;20919;-76
2022/02/16 01:36:30;;;;;;;25.68;15.58;;;;;;;-0.62;78.07;101694.16;1718986;82;21350;-75
2022/02/16 01:38:57;;;;;;;27.85;14.30;;;;;;;-0.65;77.94;101688.98;1708807;83;20951;-76
2022/02/16 01:41:26;;;;;;;30.90;14.95;;;;;;;-0.67;77.96;101690.28;1744685;82;21008;-75
2022/02/16 01:43:59;;;;;;;23.02;15.03;;;;;;;-0.67;77.98;101691.56;1744500;81;21146;-74
2022/02/16 01:46:26;;;;;;;23.70;15.93;;;;;;;-0.65;77.95;101696.27;1744870;82;20941;-74
2022/02/16 01:48:55;;;;;;;27.55;14.40;;;;;;;-0.64;77.99;101702.31;1744590;81;20964;-72
2022/02/16 01:51:22;;;;;;;27.80;17.02;;;;;;;-0.61;77.83;101714.33;1744817;82;20904;-73
2022/02/16 01:53:49;;;;;;;27.15;15.60;;;;;;;-0.60;77.85;101714.75;1744753;82;21465;-74
2022/02/16 01:56:16;;;;;;;25.43;16.67;;;;;;;-0.61;77.73;101710.03;1744838;82;21103;-73
2022/02/16 01:58:45;;;;;;;27.15;16.70;;;;;;;-0.64;77.65;101711.32;1744516;82;20984;-74
2022/02/16 02:01:14;;;;;;;28.67;17.27;;;;;;;-0.68;77.67;101716.02;1743251;82;21404;-73
2022/02/16 02:03:43;;;;;;;27.20;16.70;;;;;;;-0.71;77.68;101713.41;1744228;81;20940;-74
2022/02/16 02:06:12;;;;;;;25.80;15.80;;;;;;;-0.78;77.71;101712.53;1745064;82;20857;-74
2022/02/16 02:08:41;;;;;;;27.50;15.78;;;;;;;-0.84;77.83;101710.80;1744676;82;21396;-73
2022/02/16 02:11:09;;;;;;;21.73;13.60;;;;;;;-0.91;78.02;101721.05;1744493;82;20988;-73
2022/02/16 02:13:55;;;;;;;;;;;;;;;-0.95;78.27;101718.05;1747079;81;20889;-74
2022/02/16 02:16:24;;;;;;;20.12;11.80;;;;;;;-0.95;78.29;101720.63;1743992;81;20085;-75
2022/02/16 02:18:51;;;;;;;19.98;12.50;;;;;;;-0.97;78.57;101729.62;1744757;82;20885;-73
2022/02/16 02:21:20;;;;;;;17.32;11.93;;;;;;;-0.92;78.66;101725.77;1745060;80;21205;-75
2022/02/16 02:23:47;;;;;;;16.93;11.20;;;;;;;-0.89;78.74;101726.66;1744578;82;20920;-75
2022/02/16 02:26:14;;;;;;;19.10;11.75;;;;;;;-0.89;78.65;101730.93;1734156;82;21437;-75
2022/02/16 02:28:42;;;;;;;15.20;11.00;;;;;;;-0.95;78.80;101720.63;1744646;82;20897;-74
2022/02/16 02:31:09;;;;;;;17.60;11.75;;;;;;;-0.94;78.89;101724.91;1744852;81;20944;-76
2022/02/16 02:33:41;;;;;;;19.40;11.43;;;;;;;-0.98;78.99;101723.16;1744605;82;21163;-74
2022/02/16 02:36:06;;;;;;;16.97;10.75;;;;;;;-0.98;79.19;101721.87;1743671;81;21469;-75
2022/02/16 02:38:33;;;;;;;19.20;13.08;;;;;;;-0.99;79.36;101720.17;1757130;80;21019;-75
2022/02/16 02:41:02;;;;;;;19.80;12.75;;;;;;;-0.98;79.52;101716.30;1758134;81;21414;-75
2022/02/16 02:43:31;;;;;;;22.80;13.25;;;;;;;-0.94;79.77;101716.75;1757842;81;20885;-74
2022/02/16 02:46:01;;;;;;;22.40;13.43;;;;;;;-0.91;79.73;101714.61;1758264;81;21110;-75
2022/02/16 02:48:31;;;;;;;17.20;11.03;;;;;;;-0.84;79.93;101717.23;1757858;81;20920;-75
2022/02/16 02:50:58;;;;;;;18.55;13.22;;;;;;;-0.77;79.92;101728.86;1757950;81;20975;-73
2022/02/16 02:53:24;;;;;;;17.62;11.70;;;;;;;-0.73;80.02;101734.03;1758134;81;20873;-74
2022/02/16 02:55:51;;;;;;;17.52;11.28;;;;;;;-0.69;80.00;101733.59;1757983;80;20884;-75
2022/02/16 02:58:18;;;;;;;17.57;10.25;;;;;;;-0.71;80.00;101724.60;1758292;81;21812;-74
2022/02/16 03:00:47;;;;;;;13.70;9.63;;;;;;;-0.71;80.09;101725.00;1757954;81;20964;-73
2022/02/16 03:03:14;;;;;;;15.72;10.63;;;;;;;-0.73;80.24;101719.87;1757979;81;20884;-73
2022/02/16 03:05:41;;;;;;;11.10;8.98;;;;;;;-0.72;80.34;101716.42;1757927;81;21081;-75
2022/02/16 03:08:10;;;;;;;16.05;10.63;;;;;;;-0.70;80.47;101716.01;1757876;81;20845;-75
2022/02/16 03:10:37;;;;;;;17.10;10.50;;;;;;;-0.71;80.58;101722.43;1757909;80;21160;-74
2022/02/16 03:13:18;;;;;;;15.70;10.43;;;;;;;-0.72;80.69;101729.73;1741077;81;20983;-74
2022/02/16 03:15:36;;;;;;;14.70;10.50;;;;;;;-0.68;80.77;101727.17;1755535;81;21007;-74
2022/02/16 03:18:04;;;;;;;14.55;11.03;;;;;;;-0.65;80.75;101716.88;1758826;81;20884;-74
2022/02/16 03:20:31;;;;;;;12.80;9.50;;;;;;;-0.61;80.67;101715.19;1760818;80;20912;-74
2022/02/16 03:22:58;;;;;;;17.57;12.55;;;;;;;-0.65;80.67;101710.88;1698567;83;21291;-73
2022/02/16 03:25:25;;;;;;;14.15;9.50;;;;;;;-0.65;80.70;101715.59;1706757;82;20937;-74
2022/02/16 03:27:52;;;;;;;12.78;9.83;;;;;;;-0.61;80.58;101713.05;1724739;80;20895;-72
2022/02/16 03:30:20;;;;;;;14.05;9.55;;;;;;;-0.60;80.59;101718.61;1721931;83;20959;-74
2022/02/16 03:32:48;;;;;;;15.28;9.75;;;;;;;-0.58;80.60;101715.19;1721201;83;20901;-73
2022/02/16 03:35:15;;;;;;;15.38;10.60;;;;;;;-0.53;80.71;101724.25;1721964;83;21126;-75
2022/02/16 03:37:43;;;;;;;13.75;9.93;;;;;;;-0.49;80.58;101726.84;1719245;82;20884;-74
2022/02/16 03:40:11;;;;;;;15.90;10.78;;;;;;;-0.45;80.47;101721.25;1716436;82;20888;-75
2022/02/16 03:42:38;;;;;;;14.35;10.53;;;;;;;-0.42;80.44;101722.56;1752717;82;20975;-74
2022/02/16 03:45:07;;;;;;;15.18;10.60;;;;;;;-0.44;80.37;101725.13;1752561;82;20920;-74
2022/02/16 03:47:45;;;;;;;18.00;11.15;;;;;;;-0.46;80.34;101719.55;1721079;82;22171;-76
2022/02/16 03:50:13;;;;;;;12.95;9.70;;;;;;;-0.48;80.36;101714.38;1752780;82;21322;-74
2022/02/16 03:52:41;;;;;;;18.75;11.45;;;;;;;-0.45;80.40;101720.81;1752610;80;20889;-75
2022/02/16 03:55:09;;;;;;;16.45;11.35;;;;;;;-0.42;80.46;101714.83;1752735;82;21465;-76
2022/02/16 03:57:37;;;;;;;21.97;13.30;;;;;;;-0.45;80.29;101709.22;1752602;82;20960;-74
2022/02/16 04:00:05;;;;;;;22.95;13.78;;;;;;;-0.46;80.23;101713.95;1733670;82;21114;-76
2022/02/16 04:02:41;;;;;;;20.30;13.08;;;;;;;-0.49;80.22;101707.52;1733453;82;20936;-75
2022/02/16 04:05:09;;;;;;;24.18;15.13;;;;;;;-0.45;80.53;101709.22;1752879;82;20936;-76
2022/02/16 04:07:36;;;;;;;21.05;13.40;;;;;;;-0.39;80.74;101702.38;1752477;82;20900;-74
2022/02/16 04:10:05;;;;;;;19.02;13.32;;;;;;;-0.32;80.50;101713.13;1752771;82;20897;-77
2022/02/16 04:12:34;;;;;;;18.42;12.75;;;;;;;-0.29;80.26;101711.44;1752566;82;21339;-76
2022/02/16 04:15:01;;;;;;;20.70;13.18;;;;;;;-0.27;80.47;101711.41;1752430;82;20893;-73
2022/02/16 04:17:30;;;;;;;25.08;15.23;;;;;;;-0.26;80.11;101708.00;1733618;82;20841;-73
2022/02/16 04:19:58;;;;;;;19.23;13.00;;;;;;;-0.29;79.90;101702.82;1752691;80;20932;-72
2022/02/16 04:22:26;;;;;;;20.10;13.28;;;;;;;-0.32;79.90;101704.11;1752625;80;20960;-73
2022/02/16 04:24:55;;;;;;;19.55;13.18;;;;;;;-0.32;79.87;101697.67;1752534;82;21871;-74
2022/02/16 04:27:22;;;;;;;19.35;12.20;;;;;;;-0.31;79.83;101701.95;1752661;82;21051;-74
2022/02/16 04:29:48;;;;;;;17.23;11.20;;;;;;;-0.34;79.47;101687.78;1752609;82;20968;-74
2022/02/16 04:32:15;;;;;;;18.25;12.47;;;;;;;-0.39;79.49;101690.34;1752525;80;20975;-74
2022/02/16 04:34:43;;;;;;;17.37;12.80;;;;;;;-0.39;79.49;101685.20;1752467;82;20988;-74
2022/02/16 04:37:10;;;;;;;17.90;12.03;;;;;;;-0.40;79.59;101691.22;1753254;81;21483;-74
2022/02/16 04:39:37;;;;;;;17.20;11.95;;;;;;;-0.33;79.75;101693.39;1757866;80;20987;-73
2022/02/16 04:42:06;;;;;;;18.02;12.00;;;;;;;-0.33;79.44;101696.81;1757890;81;21482;-74
2022/02/16 04:44:34;;;;;;;17.60;13.22;;;;;;;-0.32;79.53;101695.95;1757806;80;21374;-76
2022/02/16 04:47:05;;;;;;;17.92;12.35;;;;;;;-0.27;79.61;101705.86;1757843;81;20987;-74
2022/02/16 04:51:55;;;;;;;17.10;11.88;;;;;;;-0.17;79.10;101687.83;1816591;79;22520;-74
2022/02/16 04:54:23;;;;;;;14.20;10.72;;;;;;;-0.27;78.90;101684.36;1789484;80;21369;-75
2022/02/16 04:56:50;;;;;;;14.33;9.68;;;;;;;-0.31;78.96;101673.60;1789601;80;21824;-75
2022/02/16 04:59:18;;;;;;;14.50;11.33;;;;;;;-0.34;78.96;101669.74;1789441;80;20908;-75
2022/02/16 05:01:45;;;;;;;23.83;12.13;;;;;;;-0.32;79.34;101705.40;1789586;80;20907;-74
2022/02/16 05:04:12;;;;;;;18.00;12.40;;;;;;;-0.26;79.53;101701.13;1789456;80;20888;-75
2022/02/16 05:06:42;;;;;;;22.80;14.28;;;;;;;-0.18;79.64;101697.69;1789720;80;20884;-74
2022/02/16 05:09:10;;;;;;;18.90;12.75;;;;;;;-0.10;79.42;101702.44;1789829;80;21131;-75
2022/02/16 05:11:37;;;;;;;22.45;14.85;;;;;;;-0.08;79.19;101711.89;1789566;80;20877;-75
2022/02/16 05:14:06;;;;;;;18.00;12.47;;;;;;;-0.06;79.13;101706.75;1789520;80;21420;-75
2022/02/16 05:16:34;;;;;;;20.12;14.50;;;;;;;-0.03;79.09;101715.33;1789438;80;20954;-75
2022/02/16 05:19:01;;;;;;;24.52;14.07;;;;;;;-0.03;78.90;101710.17;1759300;80;20971;-73
2022/02/16 05:21:32;;;;;;;25.70;14.30;;;;;;;-0.01;78.88;101719.20;1789482;80;20967;-72
2022/02/16 05:24:01;;;;;;;20.35;14.75;;;;;;;-0.01;78.84;101712.33;1789547;80;20877;-74
2022/02/16 05:26:30;;;;;;;22.02;14.33;;;;;;;0.00;78.84;101714.50;1790070;80;20980;-73
2022/02/16 05:28:58;;;;;;;22.62;15.80;;;;;;;0.01;78.83;101720.51;1789499;80;21057;-73
2022/02/16 05:31:25;;;;;;;28.35;16.32;;;;;;;0.04;78.87;101719.21;1789368;80;21353;-74
2022/02/16 05:33:52;;;;;;;21.17;14.68;;;;;;;0.06;78.78;101718.34;1759105;80;21093;-74
2022/02/16 05:36:21;;;;;;;36.90;15.65;;;;;;;0.08;78.81;101720.94;1789093;80;20939;-76
2022/02/16 05:38:48;;;;;;;25.02;13.88;;;;;;;0.09;78.76;101722.64;1759260;80;21034;-76
2022/02/16 05:41:16;;;;;;;26.40;14.87;;;;;;;0.13;78.79;101713.62;1789834;80;20904;-75
2022/02/16 05:43:43;;;;;;;25.92;16.10;;;;;;;0.21;78.77;101714.94;1789461;79;21350;-73
2022/02/16 05:46:12;;;;;;;22.95;13.55;;;;;;;0.28;78.76;101720.52;1789209;80;21154;-74
2022/02/16 05:48:40;;;;;;;24.67;14.73;;;;;;;0.35;78.70;101721.37;1759318;80;21465;-74
2022/02/16 05:51:07;;;;;;;23.52;15.00;;;;;;;0.39;78.45;101721.37;1786519;80;20940;-74
2022/02/16 05:53:35;;;;;;;22.93;16.40;;;;;;;0.42;78.01;101721.80;1784295;80;20907;-75
2022/02/16 05:56:02;;;;;;;22.42;14.73;;;;;;;0.40;77.91;101724.41;1784405;80;21393;-74
2022/02/16 05:58:31;;;;;;;27.35;17.17;;;;;;;0.41;77.99;101727.84;1784201;80;21217;-75
2022/02/16 06:01:00;;;;;;;24.90;16.23;;;;;;;0.43;77.83;101722.25;1784200;80;21493;-75
2022/02/16 06:03:31;;;;;;;27.37;17.67;;;;;;;0.43;77.80;101722.69;1782177;80;20892;-74
2022/02/16 06:05:59;;;;;;;26.95;15.65;;;;;;;0.44;77.90;101720.08;1783842;80;20978;-75
2022/02/16 06:08:26;;;;;;;28.15;16.85;;;;;;;0.46;77.83;101717.08;1783670;80;20944;-75
2022/02/16 06:10:56;;;;;;;27.65;16.82;;;;;;;0.51;77.91;101717.06;1783563;80;21120;-72
2022/02/16 06:13:23;;;;;;;24.90;16.62;;;;;;;0.56;77.96;101718.80;1783703;80;20872;-73
2022/02/16 06:15:52;;;;;;;25.55;17.07;;;;;;;0.61;77.82;101718.80;1753714;80;20928;-73
2022/02/16 06:18:19;;;;;;;26.05;16.95;;;;;;;0.65;77.81;101714.06;1783459;80;20912;-74
2022/02/16 06:20:47;;;;;;;24.07;14.70;;;;;;;0.71;77.63;101713.17;1783727;80;20942;-74
2022/02/16 06:23:15;;;;;;;29.37;17.25;;;;;;;0.72;77.46;101713.18;1783556;80;21151;-74
2022/02/16 06:25:42;;;;;;;25.05;16.02;;;;;;;0.70;77.52;101712.32;1783505;80;21512;-74
2022/02/16 06:28:09;;;;;;;27.37;16.60;;;;;;;0.68;77.61;101714.05;1783612;80;20983;-74
2022/02/16 06:30:38;;;;;;;27.50;16.45;;;;;;;0.70;77.97;101711.47;1783518;80;20983;-75
2022/02/16 06:33:07;;;;;;;23.57;14.85;;;;;;;0.77;77.94;101706.72;1782959;80;20896;-75
2022/02/16 06:35:34;;;;;;;27.27;17.35;;;;;;;0.80;77.67;101710.16;1783661;80;21799;-75
2022/02/16 06:38:06;;;;;;;27.00;16.57;;;;;;;0.82;77.78;101714.90;1783564;80;21341;-76
2022/02/16 06:40:34;;;;;;;26.80;16.52;;;;;;;0.90;77.74;101717.88;1783664;80;21357;-74
2022/02/16 06:43:02;;;;;;;30.30;19.30;;;;;;;0.97;77.64;101724.75;1783866;80;20904;-74
2022/02/16 06:45:29;;;;;;;33.83;20.48;;;;;;;1.00;77.60;101726.02;1783635;80;20935;-74
2022/02/16 06:47:57;;;;;;;35.35;21.95;;;;;;;1.02;77.66;101729.05;1783950;80;21785;-74
2022/02/16 06:50:25;;;;;;;32.80;20.77;;;;;;;1.08;77.62;101719.56;1782366;80;20892;-75
2022/02/16 06:52:56;;;;;;;28.17;18.12;;;;;;;1.12;77.36;101721.27;1774135;80;20968;-75
2022/02/16 06:55:24;;;;;;;37.45;21.55;;;;;;;1.16;77.28;101717.38;1776168;80;20876;-73
2022/02/16 06:57:52;;;;;;;28.57;17.20;;;;;;;1.18;77.15;101711.78;1777262;80;20892;-74
2022/02/16 07:00:23;;;;;;;25.95;17.42;;;;;;;1.19;77.08;101691.96;1777431;80;20924;-73
2022/02/16 07:02:52;;;;;;;30.82;20.37;;;;;;;1.15;76.99;101687.23;1778004;80;20976;-74
2022/02/16 07:05:23;;;;;;;29.72;18.35;;;;;;;1.11;77.02;101685.55;1777785;80;20904;-73
2022/02/16 07:07:51;;;;;;;39.70;20.95;;;;;;;1.16;77.15;101682.95;1775923;80;21437;-74
2022/02/16 07:10:18;;;;;;;33.25;20.90;;;;;;;1.23;77.26;101694.53;1775649;80;20991;-73
2022/02/16 07:12:46;;;;;;;35.68;21.73;;;;;;;1.33;77.35;101692.75;1775385;80;22468;-72
2022/02/16 07:15:13;;;;;;;40.28;24.43;;;;;;;1.46;77.17;101696.14;1775311;80;20885;-72
2022/02/16 07:17:42;;;;;;;47.90;25.37;;;;;;;1.53;77.04;101693.09;1774549;80;20956;-72
2022/02/16 07:20:12;;;;;;;44.70;25.65;;;;;;;1.58;76.89;101689.63;1775287;80;21481;-71
2022/02/16 07:22:42;;;;;;;49.42;26.73;;;;;;;1.66;76.60;101690.87;1775280;80;20944;-73
2022/02/16 07:25:11;;;;;;;60.55;33.05;;;;;;;1.69;76.37;101684.41;1775303;80;20992;-74
2022/02/16 07:27:40;;;;;;;53.58;28.80;;;;;;;1.74;76.24;101685.66;1775204;80;21484;-72
2022/02/16 07:30:12;;;;;;;56.25;31.62;;;;;;;1.78;76.20;101681.75;1775451;80;20931;-75
2022/02/16 07:32:41;;;;;;;59.60;29.82;;;;;;;1.82;76.20;101665.77;1775194;80;20988;-73
2022/02/16 07:35:11;;;;;;;57.23;29.07;;;;;;;1.88;76.04;101661.85;1753158;80;20920;-73
2022/02/16 07:37:38;;;;;;;56.95;32.83;;;;;;;1.92;75.93;101662.70;1775276;80;21102;-73
2022/02/16 07:40:06;;;;;;;63.00;30.40;;;;;;;1.96;75.85;101665.69;1775593;80;20892;-74
2022/02/16 07:42:35;;;;;;;59.98;30.15;;;;;;;1.98;75.71;101667.80;1775319;80;21307;-75
2022/02/16 07:45:20;;;;;;;59.95;30.65;;;;;;;1.98;75.54;101669.09;1775387;80;20880;-74
2022/02/16 07:47:48;;;;;;;62.00;31.02;;;;;;;1.97;75.62;101668.25;1775328;80;21026;-72
2022/02/16 07:50:15;;;;;;;61.30;31.70;;;;;;;1.98;75.69;101665.22;1775191;80;21168;-72
2022/02/16 07:53:04;;;;;;;62.20;34.15;;;;;;;2.01;75.76;101660.03;1775610;80;21449;-72
2022/02/16 07:55:42;;;;;;;72.90;35.85;;;;;;;2.03;75.72;101663.03;1755577;80;20971;-74
2022/02/16 07:58:09;;;;;;;67.10;34.88;;;;;;;2.05;75.66;101662.59;1775365;80;20963;-73
2022/02/16 08:00:38;;;;;;;67.37;35.73;;;;;;;2.07;75.61;101667.76;1775240;80;20936;-72
2022/02/16 08:03:07;;;;;;;74.72;38.53;;;;;;;2.11;75.59;101668.57;1774141;80;21379;-74
2022/02/16 08:05:35;;;;;;;67.20;31.85;;;;;;;2.14;75.48;101665.53;1775269;80;20908;-74
2022/02/16 08:08:02;;;;;;;64.72;30.70;;;;;;;2.19;75.42;101657.73;1775570;80;21374;-75
2022/02/16 08:10:30;;;;;;;62.35;31.20;;;;;;;2.24;75.43;101654.66;1775338;80;20936;-73
2022/02/16 08:12:58;;;;;;;60.58;30.55;;;;;;;2.30;75.34;101650.73;1775236;80;21896;-76
2022/02/16 08:15:28;;;;;;;57.00;32.50;;;;;;;2.33;75.00;101653.28;1774768;80;21328;-74
2022/02/16 08:17:56;;;;;;;58.38;30.55;;;;;;;2.35;74.97;101653.28;1754101;80;20865;-77
2022/02/16 08:20:24;;;;;;;64.53;35.08;;;;;;;2.40;74.63;101643.73;1775444;80;20872;-74
2022/02/16 08:23:04;;;;;;;74.58;34.23;;;;;;;2.45;74.57;101649.73;1717319;83;21414;-76
2022/02/16 08:25:31;;;;;;;59.63;31.85;;;;;;;2.49;74.16;101644.95;1717567;83;20987;-75
2022/02/16 08:28:08;;;;;;;67.67;31.48;;;;;;;2.54;73.80;101641.02;1717561;83;20999;-76
2022/02/16 08:30:36;;;;;;;65.55;33.90;;;;;;;2.59;73.71;101640.53;1717414;83;21402;-75
2022/02/16 08:33:03;;;;;;;61.90;34.23;;;;;;;2.65;73.68;101631.41;1717599;83;20908;-76
2022/02/16 08:35:32;;;;;;;63.95;33.05;;;;;;;2.73;73.41;101629.57;1717382;83;21047;-79
2022/02/16 08:37:59;;;;;;;59.20;33.05;;;;;;;2.82;73.14;101624.73;1717344;83;21011;-75
2022/02/16 08:40:27;;;;;;;65.00;34.40;;;;;;;2.90;72.71;101619.03;1717447;83;21277;-76
2022/02/16 08:42:54;;;;;;;59.27;31.00;;;;;;;2.98;72.50;101616.33;1717260;83;20860;-78
2022/02/16 08:45:24;;;;;;;55.98;32.35;;;;;;;3.05;71.90;101617.98;1717349;83;20880;-75
2022/02/16 08:47:50;;;;;;;54.83;29.48;;;;;;;3.09;71.74;101612.75;1717452;83;20971;-76
2022/02/16 08:50:16;;;;;;;52.78;29.80;;;;;;;3.14;71.41;101607.50;1717120;83;20931;-74
2022/02/16 08:52:43;;;;;;;60.43;31.37;;;;;;;3.19;71.19;101603.55;1716736;83;21296;-76
2022/02/16 08:55:10;;;;;;;52.85;28.70;;;;;;;3.23;71.07;101603.48;1716800;83;21493;-76
2022/02/16 08:57:39;;;;;;;60.88;31.10;;;;;;;3.32;70.86;101600.76;1716949;83;20916;-75
2022/02/16 09:00:08;;;;;;;48.85;23.73;;;;;;;3.40;70.48;101600.67;1771619;80;20940;-75
2022/02/16 09:02:37;;;;;;;57.27;29.87;;;;;;;3.48;69.81;101601.84;1775507;80;20908;-74
2022/02/16 09:05:05;;;;;;;57.62;26.93;;;;;;;3.55;69.37;101603.90;1775378;80;21509;-77
2022/02/16 09:07:34;;;;;;;53.17;27.30;;;;;;;3.68;69.26;101611.46;1775224;80;20924;-77
2022/02/16 09:10:08;;;;;;;57.38;28.12;;;;;;;3.82;68.79;101612.54;1775271;80;21054;-75
2022/02/16 09:12:36;;;;;;;54.27;27.58;;;;;;;3.95;68.10;101614.50;1775208;80;21411;-72
2022/02/16 09:15:04;;;;;;;50.15;27.77;;;;;;;4.01;67.73;101612.26;1775220;80;20907;-72
2022/02/16 09:17:32;;;;;;;56.53;27.22;;;;;;;4.02;67.46;101602.28;1775451;80;21121;-75
2022/02/16 09:19:59;;;;;;;62.13;28.92;;;;;;;4.01;67.12;101602.73;1775166;80;20979;-74
2022/02/16 09:22:26;;;;;;;53.45;26.87;;;;;;;3.99;67.09;101597.16;1775226;80;20897;-71
2022/02/16 09:24:53;;;;;;;58.63;27.93;;;;;;;3.94;67.12;101598.08;1775711;80;20924;-71
2022/02/16 09:27:20;;;;;;;49.33;24.67;;;;;;;3.92;67.15;101605.48;1775396;80;20923;-71
2022/02/16 09:29:47;;;;;;;52.43;25.80;;;;;;;3.91;67.21;101599.44;1775292;80;21111;-76
2022/02/16 09:32:15;;;;;;;46.68;23.12;;;;;;;3.91;67.22;101594.67;1775082;80;20984;-75
2022/02/16 09:34:43;;;;;;;41.80;22.70;;;;;;;3.91;67.32;101589.48;1775185;80;20944;-73
2022/02/16 09:37:10;;;;;;;54.83;26.27;;;;;;;3.93;67.29;101583.83;1775273;80;20963;-75
2022/02/16 09:39:37;;;;;;;37.42;21.27;;;;;;;3.94;67.30;101585.55;1775490;80;20845;-74
2022/02/16 09:42:05;;;;;;;41.92;23.35;;;;;;;3.98;67.18;101576.84;1775715;80;22139;-76
2022/02/16 09:44:58;;;;;;;46.88;25.65;;;;;;;4.00;67.06;101581.98;1775578;80;20892;-74
2022/02/16 09:47:25;;;;;;;52.70;25.80;;;;;;;4.00;67.15;101580.23;1775774;80;20877;-75
2022/02/16 09:49:52;;;;;;;49.18;24.87;;;;;;;4.04;67.30;101567.62;1775435;80;20876;-79
2022/02/16 09:52:22;;;;;;;45.03;23.65;;;;;;;4.10;67.28;101562.78;1775557;80;20958;-78
2022/02/16 09:54:49;;;;;;;47.13;23.60;;;;;;;4.17;67.13;101564.83;1775303;80;21105;-77
2022/02/16 09:57:16;;;;;;;43.05;23.15;;;;;;;4.21;66.88;101555.66;1775644;80;20853;-75
2022/02/16 09:59:43;;;;;;;50.78;22.58;;;;;;;4.24;66.95;101554.28;1775448;80;20889;-77
2022/02/16 10:02:14;;;;;;;43.02;23.25;;;;;;;4.29;66.81;101550.30;1775601;80;20999;-75
2022/02/16 10:04:56;;;;;;;33.55;19.40;;;;;;;4.32;66.54;101540.72;1775430;80;20909;-76
2022/02/16 10:07:38;;;;;;;28.52;18.10;;;;;;;4.38;66.39;101542.36;1775637;80;22112;-77
2022/02/16 10:10:21;;;;;;;29.20;15.45;;;;;;;4.44;65.92;101531.83;1775225;80;20881;-75
2022/02/16 10:12:53;;;;;;;29.70;16.75;;;;;;;4.51;65.81;101527.37;1775278;80;21035;-75
2022/02/16 10:15:55;;;;;;;27.95;16.52;;;;;;;4.60;65.75;101516.78;1774598;80;21027;-78
2022/02/16 10:18:14;;;;;;;26.57;16.42;;;;;;;4.71;65.62;101510.95;1770638;80;20995;-75
2022/02/16 10:20:43;;;;;;;25.60;14.25;;;;;;;4.91;65.46;101518.31;1775325;80;21139;-74
2022/02/16 10:23:11;;;;;;;20.95;13.03;;;;;;;5.05;64.20;101516.70;1774859;80;20908;-75
2022/02/16 10:25:40;;;;;;;23.80;13.03;;;;;;;5.12;63.70;101514.81;1775262;80;20975;-73
2022/02/16 10:28:17;;;;;;;23.50;15.50;;;;;;;5.14;63.24;101511.74;1729435;80;20947;-73
2022/02/16 10:31:10;;;;;;;30.27;17.80;;;;;;;5.16;63.21;101513.86;1775510;80;21417;-69
2022/02/16 10:33:47;;;;;;;32.60;16.70;;;;;;;5.18;63.33;101514.69;1774438;80;21806;-72
2022/02/16 10:36:19;;;;;;;27.90;17.00;;;;;;;5.23;63.40;101516.73;1775287;80;21399;-73
2022/02/16 10:39:02;;;;;;;30.82;16.40;;;;;;;5.27;63.28;101506.66;1775597;80;20888;-73
2022/02/16 10:41:31;;;;;;;26.42;16.12;;;;;;;5.32;63.20;101511.30;1775347;80;20972;-72
2022/02/16 10:43:58;;;;;;;32.88;16.77;;;;;;;5.35;63.11;101505.17;1776005;80;20976;-71
2022/02/16 10:46:28;;;;;;;29.42;17.17;;;;;;;5.35;63.08;101502.56;1777297;80;21590;-71
2022/02/16 10:49:19;;;;;;;32.40;14.95;;;;;;;5.35;63.20;101500.81;1778714;80;20880;-69
2022/02/16 10:51:46;;;;;;;27.32;16.12;;;;;;;5.38;63.17;101497.28;1775635;80;20881;-71
2022/02/16 10:54:18;;;;;;;28.38;15.78;;;;;;;5.43;63.29;101490.69;1775493;80;21394;-71
2022/02/16 10:56:50;;;;;;;26.45;16.40;;;;;;;5.50;63.33;101490.94;1775090;80;20873;-72
2022/02/16 10:59:17;;;;;;;27.62;17.12;;;;;;;5.63;63.27;101486.30;1775469;80;21328;-71
2022/02/16 11:01:45;;;;;;;31.02;15.15;;;;;;;5.77;63.17;101491.98;1774960;80;20885;-70
2022/02/16 11:04:14;;;;;;;21.85;14.65;;;;;;;5.88;62.36;101475.63;1775351;80;21000;-71
2022/02/16 11:06:47;;;;;;;23.55;13.35;;;;;;;5.90;62.06;101482.95;1775030;80;20936;-73
2022/02/16 11:09:22;;;;;;;25.35;14.40;;;;;;;5.89;62.14;101479.96;1775123;80;20896;-70
2022/02/16 11:11:51;;;;;;;24.18;13.72;;;;;;;5.87;62.26;101468.73;1775211;80;21154;-72
2022/02/16 11:14:25;;;;;;;21.90;13.70;;;;;;;5.84;62.41;101470.09;1775002;80;20996;-71
2022/02/16 11:16:53;;;;;;;23.20;13.98;;;;;;;5.83;62.30;101451.94;1775014;80;21007;-73
2022/02/16 11:19:38;;;;;;;20.48;14.05;;;;;;;5.78;62.39;101458.12;1774986;80;20975;-71
2022/02/16 11:22:19;;;;;;;21.55;12.23;;;;;;;5.75;62.74;101452.12;1773824;80;20889;-72
2022/02/16 11:24:51;;;;;;;17.67;11.20;;;;;;;5.78;62.98;101449.01;1774793;80;21990;-73